Friendship, MD

6:10 AM EDT on May 03, 2015 (GMT -0400)
Victoria Station | | Change Station
CLOSE
Current Station
Personal Weather Station
Location: Owings, MD
Elevation: 157 ft
Nearby Weather Stations
Active Advisory: Coastal Flood Advisory

Elev 157 ft 38.69 °N, 76.62 °W | Updated 2 minutes ago

Mostly Cloudy
Mostly Cloudy
50.4 °F
Feels Like 50.4 °F
N
0.0
Wind Variable Wind from ESE
Gusts 0.0 mph

Today
High -- | Low -- °F
--% Chance of Precip.
Yesterday
High -- | Low -- °F
Precip. -- in
6:06 AM 8:00 PM
Waxing Gibbous, 99% visible
Pressure 30.07 in
Visibility 10.0 miles
Clouds Clear
Dew Point 48 °F
Humidity 90%
Rainfall 0.00 in
Snow Depth Not available.
UV 0 out of 12
Pollen 9.60 out of 12
Air Quality Not available.
Flu Activity Local Activity
METAR KADW 030958Z AUTO 28005KT 10SM CLR 11/06 A3005 RMK AO2 SLP182 T01060062 $

More Conditions Fewer Conditions

Pressure 30.07 in
Visibility 10.0 miles
Clouds Clear
Dew Point 48 °F
Humidity 90%
Rainfall 0.00 in
Snow Depth Not available.
UV 0 out of 12
Pollen 9.60 out of 12
Air Quality Not available.
Flu Activity Local Activity
METAR KADW 030958Z AUTO 28005KT 10SM CLR 11/06 A3005 RMK AO2 SLP182 T01060062 $

More Conditions Fewer Conditions

Nepal has a long way to go to dig out and rebuild from a devastating earthquake. We have teamed up with several charities and organizations to make contributing to the relief effort as easy as possible.
How you can help: Portlight Strategies | Red Cross

10-Day Weather Forecast

Almanac

Astronomy

May. 03, 2015 Rise Set
Actual Time
Civil Twilight
Nautical Twilight
Astronomical Twilight
Moon
Length of Visible Light
Length of Day
Tomorrow will be .
, % of the Moon is Illuminated

Today's Extremes

State Highs State Lows

Community

WunderPhotos

Upload Photos

1,818,187 photos uploaded!

WunderBlogs® & News

Nearby

Air Quality

  Air Quality AQ Index Pollutant
Not available.

Snow Depth

Station Depth Elevation

Earthquake Activity

City Distance Mag. Time & Date
Minimum magnitude displayed is 2.5.

Coastal Water Temperatures

Place Temperature

Stations

Nearby Weather Stations

Station Location Temp. Windchill Dew Point Humidity Wind Precip. Elev Updated Type
                   
Coastal Flood Advisory
Statement as of 1:08 AM EDT on May 03, 2015

... Coastal Flood Advisory in effect until 8 am EDT this morning...

The National Weather Service in Baltimore MD/Washington has
issued a coastal Flood Advisory... which is in effect until 8 am
EDT this morning.

* Tidal anomaly... around one foot above normal.

* Timing... near high tide early this morning. High tide at
Annapolis is at 5:40 am.

* Expected impacts... minor shoreline inundation.

Precautionary/preparedness actions...

A coastal Flood Advisory indicates that onshore winds and tides
will combine to generate flooding of low areas along the shore.